Time;durP1;ratioP1;P1;durP2;ratioP2;P2;SDS_P1;SDS_P2;PMS_P1;PMS_P2;Temp;Humidity;BMP_temperature;BMP_pressure;BME280_temperature;BME280_humidity;BME280_pressure;Samples;Min_cycle;Max_cycle;Signal;HPM_P1;HPM_P2
2023/01/21 00:01:05;;;;;;;;;;;;;;;5.71;84.76;102259.94;7357803;19;19922;-64
2023/01/21 00:03:32;;;;;;;;;;;;;;;5.71;84.65;102258.19;7358720;19;19925;-63
2023/01/21 00:05:59;;;;;;;;;;;;;;;5.69;85.14;102254.00;7360558;19;19997;-64
2023/01/21 00:08:27;;;;;;;;;;;;;;;5.69;85.62;102265.25;7359389;19;19926;-59
2023/01/21 00:10:54;;;;;;;;;;;;;;;5.68;86.26;102267.97;7356666;19;19922;-62
2023/01/21 00:13:21;;;;;;;;;;;;;;;5.70;85.66;102272.16;7360338;19;19925;-64
2023/01/21 00:15:48;;;;;;;;;;;;;;;5.70;85.00;102272.16;7358470;19;19922;-62
2023/01/21 00:18:15;;;;;;;;;;;;;;;5.71;85.22;102286.91;7360367;19;19955;-63
2023/01/21 00:20:43;;;;;;;;;;;;;;;5.70;85.41;102293.06;7360566;19;20026;-62
2023/01/21 00:23:11;;;;;;;;;;;;;;;5.72;85.62;102291.22;7356787;19;21208;-61
2023/01/21 00:25:38;;;;;;;;;;;;;;;5.70;85.22;102287.81;7356545;19;20091;-61
2023/01/21 00:28:06;;;;;;;;;;;;;;;5.67;85.56;102280.19;7361232;19;20357;-62
2023/01/21 00:30:32;;;;;;;;;;;;;;;5.65;85.88;102291.63;7359822;19;19930;-62
2023/01/21 00:32:59;;;;;;;;;;;;;;;5.63;86.08;102290.88;7361700;19;19935;-63
2023/01/21 00:35:26;;;;;;;;;;;;;;;5.65;85.75;102292.47;7360008;19;19938;-64
2023/01/21 00:37:53;;;;;;;;;;;;;;;5.65;85.21;102292.47;7357980;19;19933;-63
2023/01/21 00:40:21;;;;;;;;;;;;;;;5.61;85.60;102296.19;7359622;19;19915;-65
2023/01/21 00:42:47;;;;;;;;;;;;;;;5.57;85.99;102298.13;7356672;19;19922;-63
2023/01/21 00:45:14;;;;;;;;;;;;;;;5.59;86.48;102303.22;7357315;19;19934;-61
2023/01/21 00:47:41;;;;;;;;;;;;;;;5.58;86.40;102307.66;7355827;19;20479;-62
2023/01/21 00:50:09;;;;;;;;;;;;;;;5.62;85.73;102316.13;7355844;19;19923;-62
2023/01/21 00:52:36;;;;;;;;;;;;;;;5.57;85.50;102324.22;7354163;19;19926;-64
2023/01/21 00:55:03;;;;;;;;;;;;;;;5.56;85.41;102319.91;7359213;19;19968;-63
2023/01/21 00:57:30;;;;;;;;;;;;;;;5.52;85.96;102325.41;7358260;19;19923;-61
2023/01/21 00:59:57;;;;;;;;;;;;;;;5.48;86.21;102316.91;7359236;19;19919;-62
2023/01/21 01:02:25;;;;;;;;;;;;;;;5.47;86.05;102324.81;7359786;19;19923;-63
2023/01/21 01:04:51;;;;;;;;;;;;;;;5.47;85.97;102323.03;7358531;19;19919;-62
2023/01/21 01:07:18;;;;;;;;;;;;;;;5.47;86.07;102330.88;7358668;19;19922;-63
2023/01/21 01:09:45;;;;;;;;;;;;;;;5.44;86.44;102331.00;7356497;19;20737;-62
2023/01/21 01:12:12;;;;;;;;;;;;;;;5.47;86.48;102337.84;7358297;19;21611;-63
2023/01/21 01:14:39;;;;;;;;;;;;;;;5.49;86.39;102334.22;7358035;19;19919;-61
2023/01/21 01:17:06;;;;;;;;;;;;;;;5.53;86.27;102334.91;7360503;19;19931;-63
2023/01/21 01:19:33;;;;;;;;;;;;;;;5.52;86.19;102336.69;7358376;19;19931;-63
2023/01/21 01:22:00;;;;;;;;;;;;;;;5.57;86.05;102341.66;7358185;19;19935;-63
2023/01/21 01:24:27;;;;;;;;;;;;;;;5.59;85.99;102351.06;7357395;19;19933;-62
2023/01/21 01:26:54;;;;;;;;;;;;;;;5.62;85.65;102349.22;7361779;19;19926;-63
2023/01/21 01:29:21;;;;;;;;;;;;;;;5.59;85.63;102340.63;7359388;19;20378;-65
2023/01/21 01:31:49;;;;;;;;;;;;;;;5.62;85.29;102347.47;7358327;19;19921;-58
2023/01/21 01:34:16;;;;;;;;;;;;;;;5.60;86.15;102359.75;7358511;19;19929;-58
2023/01/21 01:36:43;;;;;;;;;;;;;;;5.59;86.31;102363.28;7358985;19;19927;-59
2023/01/21 01:39:10;;;;;;;;;;;;;;;5.60;85.95;102362.34;7356043;19;20288;-58
2023/01/21 01:41:37;;;;;;;;;;;;;;;5.60;84.85;102357.13;7363964;19;19975;-58
2023/01/21 01:44:05;;;;;;;;;;;;;;;5.57;85.29;102362.53;7365637;19;19925;-60
2023/01/21 01:46:33;;;;;;;;;;;;;;;5.53;85.71;102367.09;7363388;19;19923;-56
2023/01/21 01:49:03;;;;;;;;;;;;;;;5.51;85.83;102366.31;7362068;19;19985;-58
2023/01/21 01:51:38;;;;;;;;;;;;;;;5.51;86.32;102371.53;7366766;19;20308;-58
2023/01/21 01:54:06;;;;;;;;;;;;;;;5.54;86.76;102370.50;7363747;19;19930;-59
2023/01/21 01:56:34;;;;;;;;;;;;;;;5.53;86.06;102374.91;7363669;19;20414;-60
2023/01/21 01:59:01;;;;;;;;;;;;;;;5.56;85.51;102376.50;7364817;19;20496;-58
2023/01/21 02:01:28;;;;;;;;;;;;;;;5.58;85.28;102387.72;7364200;19;20083;-61
2023/01/21 02:03:58;;;;;;;;;;;;;;;5.57;85.15;102380.81;7362544;19;19922;-61
2023/01/21 02:06:26;;;;;;;;;;;;;;;5.54;85.11;102380.94;7362642;19;19949;-62
2023/01/21 02:08:53;;;;;;;;;;;;;;;5.49;85.08;102380.34;7363462;19;19931;-59
2023/01/21 02:11:20;;;;;;;;;;;;;;;5.46;85.59;102383.97;7363657;19;19926;-62
2023/01/21 02:13:51;;;;;;;;;;;;;;;5.43;86.40;102397.22;7365619;19;19919;-56
2023/01/21 02:16:21;;;;;;;;;;;;;;;5.44;86.50;102400.63;7362336;19;19924;-60
2023/01/21 02:18:51;;;;;;;;;;;;;;;5.45;86.10;102405.78;7366579;19;19979;-59
2023/01/21 02:21:20;;;;;;;;;;;;;;;5.44;86.05;102401.47;7364229;19;19923;-61
2023/01/21 02:23:51;;;;;;;;;;;;;;;5.48;85.34;102404.78;7362521;19;19919;-60
2023/01/21 02:26:21;;;;;;;;;;;;;;;5.47;85.26;102405.72;7363662;19;19991;-59
2023/01/21 02:28:49;;;;;;;;;;;;;;;5.43;85.63;102410.25;7364931;19;19929;-59
2023/01/21 02:31:19;;;;;;;;;;;;;;;5.44;85.70;102406.69;7361300;19;19925;-60
2023/01/21 02:33:49;;;;;;;;;;;;;;;5.44;85.58;102414.53;7363275;19;19918;-60
2023/01/21 02:36:19;;;;;;;;;;;;;;;5.47;85.79;102406.56;7364022;19;19982;-57
2023/01/21 02:38:52;;;;;;;;;;;;;;;5.47;85.36;102423.97;7359115;19;19923;-60
2023/01/21 02:41:29;;;;;;;;;;;;;;;5.49;85.33;102422.97;7364246;19;19935;-58
2023/01/21 02:43:59;;;;;;;;;;;;;;;5.49;85.00;102422.13;7361773;19;19927;-62
2023/01/21 02:46:33;;;;;;;;;;;;;;;5.45;85.19;102426.66;7363228;19;19934;-60
2023/01/21 02:49:04;;;;;;;;;;;;;;;5.43;85.30;102430.28;7362586;19;19931;-58
2023/01/21 02:51:31;;;;;;;;;;;;;;;5.44;85.22;102429.34;7361815;19;20594;-58
2023/01/21 02:53:57;;;;;;;;;;;;;;;5.41;85.06;102432.13;7362022;19;20492;-64
2023/01/21 02:56:26;;;;;;;;;;;;;;;5.39;85.58;102431.34;7362787;19;19938;-60
2023/01/21 02:58:56;;;;;;;;;;;;;;;5.36;85.23;102432.38;7361692;19;20604;-59
2023/01/21 03:01:26;;;;;;;;;;;;;;;5.30;85.36;102443.13;7360201;19;20592;-58
2023/01/21 03:03:56;;;;;;;;;;;;;;;5.24;86.18;102437.34;7362812;19;21064;-57
2023/01/21 03:06:27;;;;;;;;;;;;;;;5.21;87.03;102443.59;7362488;19;19919;-61
2023/01/21 03:08:58;;;;;;;;;;;;;;;5.18;87.18;102439.34;7363549;19;20362;-61
2023/01/21 03:11:25;;;;;;;;;;;;;;;5.16;87.12;102443.81;7360517;19;19919;-58
2023/01/21 03:19:00;;;;;;;;;;;;;;;5.13;87.90;102451.78;7362176;19;21247;-58
2023/01/21 03:21:29;;;;;;;;;;;;;;;5.12;86.81;102455.34;7359532;19;19922;-57
2023/01/21 03:23:57;;;;;;;;;;;;;;;5.12;86.24;102459.72;7359330;19;19934;-58
2023/01/21 03:26:28;;;;;;;;;;;;;;;5.07;86.61;102459.94;7360623;19;19927;-61
2023/01/21 03:28:57;;;;;;;;;;;;;;;5.04;87.07;102464.44;7359962;19;19918;-57
2023/01/21 03:31:27;;;;;;;;;;;;;;;5.00;87.08;102466.38;7359244;19;19926;-58
2023/01/21 03:33:55;;;;;;;;;;;;;;;5.00;86.92;102473.34;7362859;19;19923;-59
2023/01/21 03:36:22;;;;;;;;;;;;;;;4.98;86.51;102475.19;7362351;19;19926;-59
2023/01/21 03:38:52;;;;;;;;;;;;;;;4.95;86.82;102478.81;7354674;19;20007;-57
2023/01/21 03:41:21;;;;;;;;;;;;;;;4.88;86.78;102476.56;7358558;19;20015;-60
2023/01/21 03:43:48;;;;;;;;;;;;;;;4.89;86.66;102478.25;7359157;19;19939;-60
2023/01/21 03:46:20;;;;;;;;;;;;;;;4.89;87.02;102475.66;7363409;19;19923;-59
2023/01/21 03:48:49;;;;;;;;;;;;;;;4.83;86.93;102479.38;7363961;19;19930;-58
2023/01/21 03:51:18;;;;;;;;;;;;;;;4.79;87.17;102477.84;7363549;19;20260;-57
2023/01/21 03:53:50;;;;;;;;;;;;;;;4.75;86.94;102484.16;7359333;19;19926;-63
2023/01/21 03:56:17;;;;;;;;;;;;;;;4.68;87.20;102480.97;7359813;19;19929;-61
2023/01/21 03:58:44;;;;;;;;;;;;;;;4.65;87.40;102488.97;7359746;19;19918;-59
2023/01/21 04:01:10;;;;;;;;;;;;;;;4.64;87.88;102496.84;7360632;19;19922;-60
2023/01/21 04:03:39;;;;;;;;;;;;;;;4.65;88.02;102493.31;7358467;19;19923;-59
2023/01/21 04:06:06;;;;;;;;;;;;;;;4.65;87.31;102493.31;7360701;19;19946;-61
2023/01/21 04:08:33;;;;;;;;;;;;;;;4.64;87.14;102502.91;7360175;19;19922;-60
2023/01/21 04:11:00;;;;;;;;;;;;;;;4.64;86.91;102499.44;7359451;19;20948;-59
2023/01/21 04:13:27;;;;;;;;;;;;;;;4.62;86.96;102498.69;7361941;19;19942;-61
2023/01/21 04:15:54;;;;;;;;;;;;;;;4.59;86.78;102501.44;7359970;19;20019;-59
2023/01/21 04:18:21;;;;;;;;;;;;;;;4.56;86.94;102505.03;7361416;19;20875;-59
2023/01/21 04:20:48;;;;;;;;;;;;;;;4.56;87.59;102506.81;7359275;19;19918;-60
2023/01/21 04:23:15;;;;;;;;;;;;;;;4.55;87.24;102508.56;7355376;19;19999;-59
2023/01/21 04:25:41;;;;;;;;;;;;;;;4.57;87.63;102509.31;7359456;19;19923;-61
2023/01/21 04:28:08;;;;;;;;;;;;;;;4.56;87.31;102512.88;7360377;19;19914;-59
2023/01/21 04:30:35;;;;;;;;;;;;;;;4.58;87.78;102517.97;7360001;19;19950;-57
2023/01/21 04:33:02;;;;;;;;;;;;;;;4.61;87.19;102515.25;7358767;19;19914;-60
2023/01/21 04:35:29;;;;;;;;;;;;;;;4.59;86.54;102517.91;7361140;19;19926;-61
2023/01/21 04:37:56;;;;;;;;;;;;;;;4.59;85.93;102520.53;7356566;19;19926;-59
2023/01/21 04:40:23;;;;;;;;;;;;;;;4.57;85.97;102518.94;7359282;19;20331;-58
2023/01/21 04:42:50;;;;;;;;;;;;;;;4.55;85.94;102529.41;7356749;19;19922;-60
2023/01/21 04:45:16;;;;;;;;;;;;;;;4.54;86.12;102527.72;7359773;19;19938;-59
2023/01/21 04:47:43;;;;;;;;;;;;;;;4.56;86.90;102531.09;7356184;19;20772;-63
2023/01/21 04:50:11;;;;;;;;;;;;;;;4.54;86.85;102521.66;7361084;19;20171;-58
2023/01/21 04:52:38;;;;;;;;;;;;;;;4.54;87.15;102532.94;7357830;19;19932;-61
2023/01/21 04:55:06;;;;;;;;;;;;;;;4.55;86.61;102532.00;7356705;19;21268;-55
2023/01/21 04:57:33;;;;;;;;;;;;;;;4.54;86.52;102537.28;7362105;19;19915;-52
2023/01/21 04:59:59;;;;;;;;;;;;;;;4.54;86.58;102540.75;7358761;19;19919;-59
2023/01/21 05:02:27;;;;;;;;;;;;;;;4.53;86.33;102536.44;7358834;19;19933;-56
2023/01/21 05:04:53;;;;;;;;;;;;;;;4.53;86.48;102544.25;7355358;19;19926;-59
2023/01/21 05:07:20;;;;;;;;;;;;;;;4.53;86.03;102543.41;7360428;19;20324;-62
2023/01/21 05:09:47;;;;;;;;;;;;;;;4.53;85.62;102549.47;7358669;19;20678;-61
2023/01/21 05:12:14;;;;;;;;;;;;;;;4.51;85.58;102553.09;7359794;19;19922;-59
2023/01/21 05:14:41;;;;;;;;;;;;;;;4.51;85.50;102555.69;7361065;19;19919;-57
2023/01/21 05:17:08;;;;;;;;;;;;;;;4.52;85.60;102558.19;7368263;19;19921;-59
2023/01/21 05:19:35;;;;;;;;;;;;;;;4.52;84.87;102562.59;7365192;19;19922;-59
2023/01/21 05:22:02;;;;;;;;;;;;;;;4.49;84.95;102560.13;7365940;19;19922;-59
2023/01/21 05:24:29;;;;;;;;;;;;;;;4.46;85.10;102560.28;7363836;19;19922;-58
2023/01/21 05:26:56;;;;;;;;;;;;;;;4.42;86.07;102564.75;7367340;19;19993;-56
2023/01/21 05:29:23;;;;;;;;;;;;;;;4.40;86.35;102569.22;7362861;19;19923;-58
2023/01/21 05:31:50;;;;;;;;;;;;;;;4.36;85.93;102572.03;7366698;19;19938;-59
2023/01/21 05:34:17;;;;;;;;;;;;;;;4.34;86.29;102569.47;7365276;19;19933;-62
2023/01/21 05:36:44;;;;;;;;;;;;;;;4.33;85.82;102578.19;7363576;19;19926;-57
2023/01/21 05:39:10;;;;;;;;;;;;;;;4.29;85.59;102576.66;7363373;19;20257;-59
2023/01/21 05:41:37;;;;;;;;;;;;;;;4.24;86.25;102584.69;7367506;19;19926;-58
2023/01/21 05:44:04;;;;;;;;;;;;;;;4.24;86.76;102584.69;7363394;19;20350;-58
2023/01/21 05:46:31;;;;;;;;;;;;;;;4.23;87.23;102585.59;7364951;19;19926;-60
2023/01/21 05:48:58;;;;;;;;;;;;;;;4.23;86.77;102587.34;7364667;19;19919;-58
2023/01/21 05:51:25;;;;;;;;;;;;;;;4.23;86.73;102593.41;7365989;19;19918;-59
2023/01/21 05:53:52;;;;;;;;;;;;;;;4.21;86.65;102592.66;7365497;19;19968;-60
2023/01/21 05:56:19;;;;;;;;;;;;;;;4.22;85.96;102593.47;7364965;19;20557;-60
2023/01/21 05:58:46;;;;;;;;;;;;;;;4.18;86.11;102599.72;7366235;19;19919;-60
2023/01/21 06:01:12;;;;;;;;;;;;;;;4.13;86.46;102607.75;7365551;19;19922;-59
2023/01/21 06:03:39;;;;;;;;;;;;;;;4.12;87.07;102600.84;7363999;19;20316;-59
2023/01/21 06:06:07;;;;;;;;;;;;;;;4.10;87.27;102602.69;7363626;19;19938;-60
2023/01/21 06:08:33;;;;;;;;;;;;;;;4.11;87.88;102606.13;7363306;19;20021;-62
2023/01/21 06:11:00;;;;;;;;;;;;;;;4.10;87.62;102601.84;7363927;19;19922;-57
2023/01/21 06:13:27;;;;;;;;;;;;;;;4.12;87.63;102616.47;7364830;19;19931;-60
2023/01/21 06:15:55;;;;;;;;;;;;;;;4.10;87.41;102620.06;7364635;19;19927;-57
2023/01/21 06:18:22;;;;;;;;;;;;;;;4.11;87.78;102620.00;7363616;19;19977;-57
2023/01/21 06:20:49;;;;;;;;;;;;;;;4.14;86.69;102630.28;7362113;19;19923;-59
2023/01/21 06:23:16;;;;;;;;;;;;;;;4.12;86.71;102631.25;7360560;19;19919;-61
2023/01/21 06:25:43;;;;;;;;;;;;;;;4.11;86.38;102635.63;7360993;19;20356;-61
2023/01/21 06:28:10;;;;;;;;;;;;;;;4.09;86.39;102631.38;7363268;19;19923;-62
2023/01/21 06:30:37;;;;;;;;;;;;;;;4.10;86.91;102644.34;7359989;19;19919;-59
2023/01/21 06:33:04;;;;;;;;;;;;;;;4.07;86.72;102644.47;7362585;19;19915;-59
2023/01/21 06:35:31;;;;;;;;;;;;;;;4.08;86.20;102659.19;7363060;19;19923;-59
2023/01/21 06:37:58;;;;;;;;;;;;;;;4.05;86.32;102653.28;7364440;19;20569;-60
2023/01/21 06:40:25;;;;;;;;;;;;;;;4.03;86.41;102662.88;7360894;19;19926;-58
2023/01/21 06:42:53;;;;;;;;;;;;;;;4.04;87.05;102670.66;7364379;19;19923;-59
2023/01/21 06:45:20;;;;;;;;;;;;;;;3.99;86.79;102672.59;7360465;19;20817;-59
2023/01/21 06:47:46;;;;;;;;;;;;;;;4.03;86.23;102679.38;7363471;19;20201;-59
2023/01/21 06:50:14;;;;;;;;;;;;;;;4.03;85.83;102684.56;7364056;19;19930;-58
2023/01/21 06:52:42;;;;;;;;;;;;;;;4.08;85.84;102676.56;7364243;19;19919;-60
2023/01/21 06:55:09;;;;;;;;;;;;;;;4.09;85.75;102688.69;7361136;19;19919;-60
2023/01/21 06:57:37;;;;;;;;;;;;;;;4.12;86.02;102680.72;7360796;19;19934;-62
2023/01/21 07:00:04;;;;;;;;;;;;;;;4.13;85.83;102678.06;7360183;19;20368;-59
2023/01/21 07:02:31;;;;;;;;;;;;;;;4.13;85.83;102677.22;7363891;19;20343;-61
2023/01/21 07:04:58;;;;;;;;;;;;;;;4.13;85.76;102691.09;7359401;19;19952;-55
2023/01/21 07:07:25;;;;;;;;;;;;;;;4.11;85.80;102698.13;7363363;19;19914;-61
2023/01/21 07:09:52;;;;;;;;;;;;;;;4.12;86.02;102698.94;7359960;19;19990;-60
2023/01/21 07:12:19;;;;;;;;;;;;;;;4.14;86.32;102702.34;7360701;19;19926;-62
2023/01/21 07:14:45;;;;;;;;;;;;;;;4.15;86.33;102701.44;7361659;19;19934;-60
2023/01/21 07:17:12;;;;;;;;;;;;;;;4.15;85.91;102704.06;7362460;19;19946;-59
2023/01/21 07:19:39;;;;;;;;;;;;;;;4.12;86.14;102702.41;7360254;19;19930;-60
2023/01/21 07:22:06;;;;;;;;;;;;;;;4.13;86.07;102708.47;7362124;19;20453;-59
2023/01/21 07:24:33;;;;;;;;;;;;;;;4.12;85.91;102709.38;7358661;19;19923;-61
2023/01/21 07:27:00;;;;;;;;;;;;;;;4.10;85.67;102711.22;7363289;19;19940;-61
2023/01/21 07:29:28;;;;;;;;;;;;;;;4.07;85.76;102711.31;7361457;19;19919;-58
2023/01/21 07:31:55;;;;;;;;;;;;;;;4.04;85.58;102703.66;7364452;19;19923;-62
2023/01/21 07:34:22;;;;;;;;;;;;;;;4.07;86.01;102711.31;7360065;19;19964;-58
2023/01/21 07:36:48;;;;;;;;;;;;;;;4.06;85.59;102710.50;7362109;19;20577;-62
2023/01/21 07:39:15;;;;;;;;;;;;;;;4.07;85.64;102709.56;7360018;19;19927;-60
2023/01/21 07:41:42;;;;;;;;;;;;;;;4.07;85.42;102717.38;7363508;19;19919;-59
2023/01/21 07:44:13;;;;;;;;;;;;;;;4.06;85.58;102722.69;7357657;19;21617;-62
2023/01/21 07:46:40;;;;;;;;;;;;;;;4.07;85.53;102729.56;7362377;19;19930;-58
2023/01/21 07:49:07;;;;;;;;;;;;;;;4.08;85.57;102720.84;7360733;19;19947;-60
2023/01/21 07:51:33;;;;;;;;;;;;;;;4.08;85.29;102728.66;7361667;19;19914;-60
2023/01/21 07:54:00;;;;;;;;;;;;;;;4.08;85.28;102736.47;7360776;19;20031;-60
2023/01/21 07:56:27;;;;;;;;;;;;;;;4.08;84.88;102752.09;7359226;19;19933;-57
2023/01/21 07:58:54;;;;;;;;;;;;;;;4.09;85.24;102745.97;7361040;19;19918;-57
2023/01/21 08:01:21;;;;;;;;;;;;;;;4.06;84.73;102746.97;7361821;19;20832;-56
2023/01/21 08:03:50;;;;;;;;;;;;;;;4.08;85.11;102754.69;7362399;19;20018;-59
2023/01/21 08:06:17;;;;;;;;;;;;;;;4.04;84.46;102747.91;7361219;19;20023;-62
2023/01/21 08:08:44;;;;;;;;;;;;;;;4.01;84.95;102755.88;7359461;19;19930;-58
2023/01/21 08:11:11;;;;;;;;;;;;;;;4.01;84.88;102769.75;7357021;19;19943;-61
2023/01/21 08:13:38;;;;;;;;;;;;;;;4.01;85.07;102767.13;7362767;19;19922;-60
2023/01/21 08:16:06;;;;;;;;;;;;;;;4.02;85.11;102771.41;7358339;19;19926;-59
2023/01/21 08:18:32;;;;;;;;;;;;;;;4.01;85.01;102768.88;7361344;19;20008;-59
2023/01/21 08:20:59;;;;;;;;;;;;;;;4.05;84.92;102773.06;7360496;19;19922;-61
2023/01/21 08:23:26;;;;;;;;;;;;;;;4.05;85.04;102781.72;7360653;19;19919;-60
2023/01/21 08:25:53;;;;;;;;;;;;;;;4.08;84.71;102780.72;7356894;19;19929;-60
2023/01/21 08:28:21;;;;;;;;;;;;;;;4.08;84.62;102778.13;7359267;19;19919;-60
2023/01/21 08:30:48;;;;;;;;;;;;;;;4.10;84.11;102774.56;7359740;19;19939;-59
2023/01/21 08:33:15;;;;;;;;;;;;;;;4.13;84.24;102779.63;7359814;19;20364;-59
2023/01/21 08:35:42;;;;;;;;;;;;;;;4.10;84.11;102777.16;7360604;19;19919;-61
2023/01/21 08:38:08;;;;;;;;;;;;;;;4.11;84.28;102791.88;7359258;19;20715;-60
2023/01/21 08:40:35;;;;;;;;;;;;;;;4.08;84.18;102789.38;7359794;19;21586;-58
2023/01/21 08:43:03;;;;;;;;;;;;;;;4.06;84.09;102779.97;7364281;19;19942;-59
2023/01/21 08:45:30;;;;;;;;;;;;;;;4.08;84.69;102786.78;7358255;19;19943;-60
2023/01/21 08:47:57;;;;;;;;;;;;;;;4.08;84.28;102792.00;7358070;19;20368;-62
2023/01/21 08:50:25;;;;;;;;;;;;;;;4.09;84.33;102804.13;7357595;19;19993;-60
2023/01/21 08:52:53;;;;;;;;;;;;;;;4.14;84.01;102796.97;7359411;19;20315;-61
2023/01/21 08:55:21;;;;;;;;;;;;;;;4.16;84.94;102804.72;7358483;19;20505;-60
2023/01/21 08:57:50;;;;;;;;;;;;;;;4.17;85.15;102796.81;7358917;19;19922;-59
2023/01/21 09:00:18;;;;;;;;;;;;;;;4.22;84.19;102797.47;7358105;19;20258;-58
2023/01/21 09:02:45;;;;;;;;;;;;;;;4.28;82.94;102799.00;7360221;19;20442;-61
2023/01/21 09:05:12;;;;;;;;;;;;;;;4.29;82.76;102803.28;7357840;19;20325;-60
2023/01/21 09:07:39;;;;;;;;;;;;;;;4.27;83.25;102805.09;7357912;19;19915;-59
2023/01/21 09:10:07;;;;;;;;;;;;;;;4.25;83.18;102818.22;7357604;19;19942;-60
2023/01/21 09:12:34;;;;;;;;;;;;;;;4.25;83.78;102817.38;7358999;19;20342;-58
2023/01/21 09:15:01;;;;;;;;;;;;;;;4.28;83.67;102819.84;7358873;19;19919;-57
2023/01/21 09:17:28;;;;;;;;;;;;;;;4.34;83.57;102822.19;7358434;19;19911;-61
2023/01/21 09:19:55;;;;;;;;;;;;;;;4.39;82.94;102833.28;7355348;19;19926;-59
2023/01/21 09:22:22;;;;;;;;;;;;;;;4.41;83.48;102825.41;7358802;19;20207;-61
2023/01/21 09:24:49;;;;;;;;;;;;;;;4.45;82.84;102833.03;7355738;19;19919;-57
2023/01/21 09:27:16;;;;;;;;;;;;;;;4.54;81.80;102835.25;7356515;19;20013;-58
2023/01/21 09:29:43;;;;;;;;;;;;;;;4.54;81.75;102844.81;7357149;19;19919;-59
2023/01/21 09:32:11;;;;;;;;;;;;;;;4.56;81.48;102841.25;7359846;19;19922;-62
2023/01/21 09:34:38;;;;;;;;;;;;;;;4.59;82.25;102848.06;7355900;19;20001;-60
2023/01/21 09:37:05;;;;;;;;;;;;;;;4.61;82.31;102854.09;7349785;19;20443;-60
2023/01/21 09:39:32;;;;;;;;;;;;;;;4.65;82.05;102855.66;7354514;19;19936;-61
2023/01/21 09:41:59;;;;;;;;;;;;;;;4.71;82.88;102860.63;7356251;19;20685;-60
2023/01/21 09:44:30;;;;;;;;;;;;;;;4.74;82.21;102863.94;7357001;19;19961;-62
2023/01/21 09:47:00;;;;;;;;;;;;;;;4.78;81.94;102862.03;7354909;19;19926;-55
2023/01/21 09:49:29;;;;;;;;;;;;;;;4.87;81.32;102874.69;7357647;19;19922;-60
2023/01/21 09:51:58;;;;;;;;;;;;;;;4.94;80.24;102875.25;7356580;19;20492;-60
2023/01/21 09:54:27;;;;;;;;;;;;;;;4.97;80.29;102870.78;7357613;19;20276;-61
2023/01/21 09:56:57;;;;;;;;;;;;;;;4.99;80.56;102875.91;7358686;19;20584;-61
2023/01/21 09:59:27;;;;;;;;;;;;;;;5.02;80.42;102875.81;7357729;19;19931;-61
2023/01/21 10:01:59;;;;;;;;;;;;;;;5.03;80.35;102878.31;7363093;19;20855;-64
2023/01/21 10:04:26;;;;;;;;;;;;;;;5.07;80.35;102879.91;7363988;19;19933;-60
2023/01/21 10:06:54;;;;;;;;;;;;;;;5.08;79.80;102876.34;7364295;19;20339;-61
2023/01/21 10:09:24;;;;;;;;;;;;;;;5.12;80.21;102887.53;7361743;19;19922;-60
2023/01/21 10:11:55;;;;;;;;;;;;;;;5.12;80.04;102882.31;7365754;19;19933;-65
2023/01/21 10:14:25;;;;;;;;;;;;;;;5.18;80.29;102894.25;7361264;19;19926;-61
2023/01/21 10:16:55;;;;;;;;;;;;;;;5.23;80.70;102887.06;7364385;19;20016;-62
2023/01/21 10:19:27;;;;;;;;;;;;;;;5.29;80.30;102894.59;7363657;19;19911;-60
2023/01/21 10:21:55;;;;;;;;;;;;;;;5.36;80.36;102896.88;7363954;19;19922;-60
2023/01/21 10:24:24;;;;;;;;;;;;;;;5.41;79.58;102883.63;7360531;19;19923;-59
2023/01/21 10:26:52;;;;;;;;;;;;;;;5.47;79.09;102888.59;7365164;19;19922;-58
2023/01/21 10:29:22;;;;;;;;;;;;;;;5.56;78.89;102898.59;7361779;19;20477;-59
2023/01/21 10:31:54;;;;;;;;;;;;;;;5.64;78.54;102898.28;7361864;19;19927;-59
2023/01/21 10:34:21;;;;;;;;;;;;;;;5.67;78.92;102896.38;7357383;19;19950;-63
2023/01/21 10:36:49;;;;;;;;;;;;;;;5.69;78.66;102893.69;7363044;19;19950;-62
2023/01/21 10:39:19;;;;;;;;;;;;;;;5.70;78.00;102898.81;7356235;19;20962;-59
2023/01/21 10:41:49;;;;;;;;;;;;;;;5.74;77.28;102907.38;7359248;19;20495;-63
2023/01/21 10:44:19;;;;;;;;;;;;;;;5.79;76.75;102901.00;7362055;19;20185;-60
2023/01/21 10:46:48;;;;;;;;;;;;;;;5.85;76.91;102903.34;7363773;19;20355;-58
2023/01/21 10:49:19;;;;;;;;;;;;;;;5.89;76.73;102909.31;7360001;19;19923;-60
2023/01/21 10:51:49;;;;;;;;;;;;;;;5.93;77.11;102903.88;7361798;19;20401;-60
2023/01/21 10:54:24;;;;;;;;;;;;;;;6.02;75.32;102897.38;7362675;19;19923;-62
2023/01/21 10:56:54;;;;;;;;;;;;;;;6.05;75.51;102909.44;7362572;19;19919;-57
2023/01/21 10:59:23;;;;;;;;;;;;;;;6.10;75.92;102910.06;7360575;19;19998;-60
2023/01/21 11:01:57;;;;;;;;;;;;;;;6.10;76.46;102903.06;7362649;19;20514;-60
2023/01/21 11:04:26;;;;;;;;;;;;;;;6.16;75.88;102904.56;7362366;19;19918;-58
2023/01/21 11:06:57;;;;;;;;;;;;;;;6.20;75.28;102903.47;7361454;19;19923;-61
2023/01/21 11:09:26;;;;;;;;;;;;;;;6.21;75.12;102908.66;7357663;19;20023;-59
2023/01/21 11:11:53;;;;;;;;;;;;;;;6.24;75.29;102908.50;7358973;19;19927;-60
2023/01/21 11:14:20;;;;;;;;;;;;;;;6.27;75.14;102902.28;7360743;19;19918;-60
2023/01/21 11:16:48;;;;;;;;;;;;;;;6.30;74.40;102899.50;7362933;19;19918;-57
2023/01/21 11:19:20;;;;;;;;;;;;;;;6.28;74.38;102899.59;7360932;19;21586;-58
2023/01/21 11:21:50;;;;;;;;;;;;;;;6.29;74.48;102901.31;7362421;19;20295;-60
2023/01/21 11:24:21;;;;;;;;;;;;;;;6.30;74.39;102896.88;7360617;19;19938;-58
2023/01/21 11:26:49;;;;;;;;;;;;;;;6.32;74.35;102901.13;7359246;19;20514;-61
2023/01/21 11:29:17;;;;;;;;;;;;;;;6.34;74.17;102903.69;7361208;19;19988;-56
2023/01/21 11:31:48;;;;;;;;;;;;;;;6.36;74.30;102902.69;7361474;19;19922;-60
2023/01/21 11:34:16;;;;;;;;;;;;;;;6.38;74.57;102890.38;7361015;19;19926;-56
2023/01/21 11:36:46;;;;;;;;;;;;;;;6.41;74.01;102898.06;7358770;19;20237;-62
2023/01/21 11:39:13;;;;;;;;;;;;;;;6.42;73.86;102893.69;7362067;19;19923;-61
2023/01/21 11:41:49;;;;;;;;;;;;;;;6.52;74.18;102896.72;7359290;19;19926;-60
2023/01/21 11:44:17;;;;;;;;;;;;;;;6.53;74.68;102896.63;7362304;19;19963;-57
2023/01/21 11:46:45;;;;;;;;;;;;;;;6.59;73.50;102887.66;7361848;19;19919;-61
2023/01/21 11:49:17;;;;;;;;;;;;;;;6.64;73.88;102898.72;7359370;19;20242;-57
2023/01/21 11:51:44;;;;;;;;;;;;;;;6.67;73.64;102891.56;7360744;19;19914;-62
2023/01/21 11:54:13;;;;;;;;;;;;;;;6.71;73.18;102887.88;7358817;19;19943;-60
2023/01/21 11:56:42;;;;;;;;;;;;;;;6.79;73.16;102890.13;7355771;19;21579;-61
2023/01/21 11:59:18;;;;;;;;;;;;;;;6.82;73.46;102889.94;7360752;19;19941;-58
2023/01/21 12:01:48;;;;;;;;;;;;;;;6.90;72.39;102886.97;7360204;19;20012;-60
2023/01/21 12:04:15;;;;;;;;;;;;;;;7.00;71.82;102888.19;7361081;19;19935;-61
2023/01/21 12:06:45;;;;;;;;;;;;;;;7.01;71.73;102884.66;7359371;19;19936;-58
2023/01/21 12:09:16;;;;;;;;;;;;;;;7.00;72.36;102886.41;7357680;19;20245;-58
2023/01/21 12:11:46;;;;;;;;;;;;;;;7.00;73.49;102885.56;7359286;19;19977;-57
2023/01/21 12:14:22;;;;;;;;;;;;;;;7.02;72.61;102881.94;7361143;19;20887;-61
2023/01/21 12:16:52;;;;;;;;;;;;;;;7.02;73.34;102878.47;7360549;19;20533;-58
2023/01/21 12:19:19;;;;;;;;;;;;;;;7.01;72.68;102879.41;7358122;19;19927;-59
2023/01/21 12:21:49;;;;;;;;;;;;;;;7.04;73.36;102880.09;7361555;19;20027;-60
2023/01/21 12:24:20;;;;;;;;;;;;;;;7.07;72.95;102879.91;7358045;19;19919;-60
2023/01/21 12:26:54;;;;;;;;;;;;;;;7.12;72.40;102884.91;7356426;19;19929;-59
2023/01/21 12:29:24;;;;;;;;;;;;;;;7.16;72.90;102878.63;7356068;19;19922;-59
2023/01/21 12:31:53;;;;;;;;;;;;;;;7.19;72.21;102878.44;7361534;19;20469;-60
2023/01/21 12:34:27;;;;;;;;;;;;;;;7.23;72.75;102867.72;7358505;19;20145;-61
2023/01/21 12:36:59;;;;;;;;;;;;;;;7.32;72.72;102871.63;7357152;19;20340;-59
2023/01/21 12:39:30;;;;;;;;;;;;;;;7.35;72.02;102866.25;7356884;19;19975;-61
2023/01/21 12:42:01;;;;;;;;;;;;;;;7.49;70.90;102866.34;7360119;19;19927;-62
2023/01/21 12:44:31;;;;;;;;;;;;;;;7.51;70.01;102861.88;7357883;19;20048;-60
2023/01/21 12:47:01;;;;;;;;;;;;;;;7.53;70.59;102857.41;7357348;19;21617;-59
2023/01/21 12:49:45;;;;;;;;;;;;;;;7.67;77.91;102862.72;7358899;19;20263;-60
2023/01/21 12:52:15;;;;;;;;;;;;;;;7.83;78.87;102861.88;7360625;19;20314;-61
2023/01/21 12:54:45;;;;;;;;;;;;;;;7.96;77.06;102868.16;7358593;19;19933;-61
2023/01/21 12:57:13;;;;;;;;;;;;;;;7.97;71.18;102857.59;7361559;19;19935;-60